createdAt,value
2017-09-22T00:01:00.635Z,32.80
2017-09-22T00:03:28.880Z,32.13
2017-09-22T00:05:57.305Z,34.10
2017-09-22T00:08:25.728Z,31.80
2017-09-22T00:10:54.155Z,29.97
2017-09-22T00:13:22.376Z,31.07
2017-09-22T00:15:50.608Z,33.30
2017-09-22T00:18:19.027Z,29.03
2017-09-22T00:20:47.431Z,33.07
2017-09-22T00:23:15.844Z,29.50
2017-09-22T00:25:43.923Z,32.00
2017-09-22T00:28:12.345Z,29.63
2017-09-22T00:30:40.756Z,29.97
2017-09-22T00:33:09.194Z,34.53
2017-09-22T00:35:37.609Z,27.43
2017-09-22T00:38:06.062Z,33.63
2017-09-22T00:40:34.484Z,35.60
2017-09-22T00:43:02.896Z,29.93
2017-09-22T00:45:32.078Z,32.50
2017-09-22T00:48:00.579Z,32.67
2017-09-22T00:50:29.424Z,29.87
2017-09-22T00:52:57.840Z,34.17
2017-09-22T00:55:27.044Z,30.67
2017-09-22T00:57:55.479Z,32.83
2017-09-22T01:00:23.568Z,31.97
2017-09-22T01:02:53.616Z,35.03
2017-09-22T01:05:22.021Z,31.10
2017-09-22T01:07:50.483Z,28.90
2017-09-22T01:10:18.923Z,30.87
2017-09-22T01:12:48.114Z,33.10
2017-09-22T01:15:16.523Z,39.17
2017-09-22T01:17:44.939Z,32.83
2017-09-22T01:20:13.351Z,31.10
2017-09-22T01:22:41.764Z,32.40
2017-09-22T01:25:10.186Z,23.23
2017-09-22T01:27:38.547Z,30.93
2017-09-22T01:30:07.026Z,33.63
2017-09-22T01:32:35.468Z,28.37
2017-09-22T01:35:03.874Z,28.07
2017-09-22T01:37:32.290Z,30.40
2017-09-22T01:40:00.720Z,25.20
2017-09-22T01:42:29.139Z,29.67
2017-09-22T01:44:57.548Z,29.77
2017-09-22T01:47:26.747Z,25.47
2017-09-22T01:49:56.088Z,25.00
2017-09-22T01:52:24.507Z,25.93
2017-09-22T01:54:52.939Z,22.50
2017-09-22T01:57:21.362Z,24.93
2017-09-22T01:59:49.779Z,25.10
2017-09-22T02:02:18.219Z,22.70
2017-09-22T02:04:46.635Z,21.10
2017-09-22T02:07:15.046Z,19.23
2017-09-22T02:09:43.504Z,22.00
2017-09-22T02:12:11.923Z,20.73
2017-09-22T02:14:40.334Z,20.43
2017-09-22T02:17:09.529Z,22.43
2017-09-22T02:19:38.719Z,18.83
2017-09-22T02:22:07.903Z,22.63
2017-09-22T02:24:36.344Z,19.80
2017-09-22T02:27:05.766Z,23.07
2017-09-22T02:29:34.191Z,22.17
2017-09-22T02:32:02.635Z,21.50
2017-09-22T02:34:31.048Z,17.27
2017-09-22T02:37:00.239Z,16.43
2017-09-22T02:39:29.443Z,17.50
2017-09-22T02:41:57.911Z,18.90
2017-09-22T02:44:27.099Z,20.73
2017-09-22T02:46:56.294Z,20.27
2017-09-22T02:49:25.516Z,15.67
2017-09-22T02:51:54.134Z,17.10
2017-09-22T02:54:22.558Z,17.23
2017-09-22T02:56:51.740Z,20.63
2017-09-22T02:59:20.168Z,22.43
2017-09-22T03:01:48.641Z,17.87
2017-09-22T03:04:17.058Z,18.53
2017-09-22T03:06:45.470Z,16.70
2017-09-22T03:09:14.682Z,18.33
2017-09-22T03:11:43.098Z,14.90
2017-09-22T03:14:12.073Z,17.80
2017-09-22T03:16:40.535Z,15.67
2017-09-22T03:19:08.959Z,14.37
2017-09-22T03:21:37.380Z,16.30
2017-09-22T03:24:06.580Z,14.83
2017-09-22T03:26:35.758Z,12.03
2017-09-22T03:29:04.170Z,12.93
2017-09-22T03:31:32.668Z,17.20
2017-09-22T03:34:02.276Z,14.93
2017-09-22T03:36:30.687Z,14.40
2017-09-22T03:38:59.954Z,13.33
2017-09-22T03:41:28.375Z,14.80
2017-09-22T03:43:56.787Z,14.80
2017-09-22T03:46:25.207Z,16.30
2017-09-22T03:48:53.623Z,14.33
2017-09-22T03:51:22.795Z,15.93
2017-09-22T03:53:51.227Z,11.97
2017-09-22T03:56:19.638Z,18.43
2017-09-22T03:58:48.055Z,11.70
2017-09-22T04:01:17.331Z,14.33
2017-09-22T04:03:45.748Z,12.97
2017-09-22T04:06:14.911Z,19.80
2017-09-22T04:08:43.547Z,13.40
2017-09-22T04:11:11.955Z,17.87
2017-09-22T04:13:40.378Z,21.17
2017-09-22T04:16:09.595Z,13.80
2017-09-22T04:18:37.994Z,15.77
2017-09-22T04:21:06.407Z,14.33
2017-09-22T04:23:36.346Z,14.80
2017-09-22T04:26:04.762Z,9.77
2017-09-22T04:28:33.180Z,12.90
2017-09-22T04:31:01.602Z,13.43
2017-09-22T04:33:30.003Z,25.63
2017-09-22T04:35:58.420Z,27.40
2017-09-22T04:38:26.944Z,17.93
2017-09-22T04:40:55.358Z,32.73
2017-09-22T04:43:23.771Z,43.37
2017-09-22T04:45:52.974Z,22.33
2017-09-22T04:48:22.562Z,17.30
2017-09-22T04:50:50.976Z,14.07
2017-09-22T04:53:19.422Z,13.13
2017-09-22T04:55:48.597Z,14.93
2017-09-22T04:58:17.019Z,16.10
2017-09-22T05:00:45.456Z,13.30
2017-09-22T05:03:15.396Z,15.80
2017-09-22T05:05:44.585Z,11.50
2017-09-22T05:08:13.783Z,14.53
2017-09-22T05:10:42.969Z,12.73
2017-09-22T05:13:11.388Z,13.97
2017-09-22T05:15:39.809Z,12.23
2017-09-22T05:18:08.231Z,14.80
2017-09-22T05:20:38.365Z,11.30
2017-09-22T05:23:06.875Z,15.53
2017-09-22T05:25:35.287Z,16.57
2017-09-22T05:28:03.707Z,10.30
2017-09-22T05:30:32.135Z,17.00
2017-09-22T05:33:00.550Z,21.77
2017-09-22T05:35:28.962Z,16.20
2017-09-22T05:37:57.386Z,16.40
2017-09-22T05:40:26.663Z,29.50
2017-09-22T05:42:55.085Z,36.27
2017-09-22T05:45:23.531Z,34.90
2017-09-22T05:47:51.950Z,41.00
2017-09-22T05:50:20.360Z,28.73
2017-09-22T05:52:48.792Z,18.47
2017-09-22T05:55:17.963Z,16.03
2017-09-22T05:57:46.380Z,12.00
2017-09-22T06:00:14.814Z,16.67
2017-09-22T06:02:43.228Z,9.80
2017-09-22T06:05:11.631Z,12.40
2017-09-22T06:07:40.065Z,12.57
2017-09-22T06:10:09.248Z,10.67
2017-09-22T06:12:38.434Z,9.03
2017-09-22T06:15:06.865Z,17.77
2017-09-22T06:17:35.288Z,8.90
2017-09-22T06:20:03.704Z,9.50
2017-09-22T06:22:32.897Z,7.30
2017-09-22T06:25:02.081Z,13.97
2017-09-22T06:27:30.494Z,11.37
2017-09-22T06:29:58.933Z,13.63
2017-09-22T06:32:27.343Z,8.63
2017-09-22T06:34:55.756Z,12.80
2017-09-22T06:37:24.191Z,14.30
2017-09-22T06:39:53.358Z,17.57
2017-09-22T06:42:21.784Z,17.70
2017-09-22T06:44:50.209Z,18.33
2017-09-22T06:47:19.391Z,27.57
2017-09-22T06:49:47.811Z,15.63
2017-09-22T06:52:17.003Z,13.47
2017-09-22T06:54:46.180Z,14.73
2017-09-22T06:57:14.619Z,10.70
2017-09-22T06:59:43.057Z,11.53
2017-09-22T07:02:11.471Z,7.27
2017-09-22T07:04:39.898Z,10.93
2017-09-22T07:07:08.333Z,13.47
2017-09-22T07:09:36.743Z,9.93
2017-09-22T07:12:05.163Z,11.40
2017-09-22T07:14:34.362Z,12.37
2017-09-22T07:17:03.538Z,12.43
2017-09-22T07:19:31.938Z,8.33
2017-09-22T07:22:01.131Z,8.83
2017-09-22T07:24:30.010Z,11.77
2017-09-22T07:26:59.186Z,12.60
2017-09-22T07:29:27.602Z,8.33
2017-09-22T07:31:56.011Z,13.90
2017-09-22T07:34:24.424Z,18.30
2017-09-22T07:36:52.846Z,14.33
2017-09-22T07:39:21.268Z,20.60
2017-09-22T07:41:49.681Z,6.43
2017-09-22T07:44:18.885Z,20.80
2017-09-22T07:46:48.120Z,18.70
2017-09-22T07:49:16.532Z,11.90
2017-09-22T07:51:45.218Z,8.40
2017-09-22T07:54:13.640Z,7.90
2017-09-22T07:56:42.063Z,9.40
2017-09-22T07:59:10.491Z,10.53
2017-09-22T08:01:38.899Z,9.30
2017-09-22T08:04:07.315Z,11.50
2017-09-22T08:06:35.749Z,10.60
2017-09-22T08:09:03.475Z,15.00
2017-09-22T08:11:32.663Z,20.63
2017-09-22T08:14:02.929Z,15.73
2017-09-22T08:16:31.350Z,19.23
2017-09-22T08:18:59.759Z,13.27
2017-09-22T08:21:28.954Z,14.43
2017-09-22T08:23:58.134Z,19.60
2017-09-22T08:26:27.314Z,20.33
2017-09-22T08:28:55.759Z,9.83
2017-09-22T08:31:24.381Z,8.20
2017-09-22T08:33:52.808Z,10.30
2017-09-22T08:36:21.234Z,9.93
2017-09-22T08:38:49.660Z,13.83
2017-09-22T08:41:18.090Z,11.80
2017-09-22T08:43:47.258Z,16.00
2017-09-22T08:46:15.674Z,10.40
2017-09-22T08:48:44.098Z,12.43
2017-09-22T08:51:12.535Z,8.10
2017-09-22T08:53:40.946Z,15.20
2017-09-22T08:56:09.447Z,11.97
2017-09-22T08:58:37.890Z,9.77
2017-09-22T09:01:07.074Z,14.47
2017-09-22T09:03:36.253Z,14.23
2017-09-22T09:06:04.684Z,9.73
2017-09-22T09:08:33.097Z,9.33
2017-09-22T09:11:01.515Z,9.83
2017-09-22T09:13:30.714Z,10.97
2017-09-22T09:15:59.887Z,13.73
2017-09-22T09:18:28.310Z,10.47
2017-09-22T09:20:56.739Z,9.50
2017-09-22T09:23:25.157Z,13.03
2017-09-22T09:25:53.598Z,10.50
2017-09-22T09:28:22.023Z,8.60
2017-09-22T09:30:50.439Z,10.43
2017-09-22T09:33:18.854Z,15.00
2017-09-22T09:35:48.052Z,10.80
2017-09-22T09:38:17.250Z,12.27
2017-09-22T09:40:46.515Z,17.27
2017-09-22T09:43:14.942Z,12.00
2017-09-22T09:45:43.355Z,18.07
2017-09-22T09:48:11.828Z,17.03
2017-09-22T09:50:40.250Z,10.60
2017-09-22T09:53:08.658Z,11.90
2017-09-22T09:55:37.064Z,12.27
2017-09-22T09:58:05.506Z,8.33
2017-09-22T10:00:34.684Z,12.00
2017-09-22T10:03:03.102Z,21.53
2017-09-22T10:05:31.362Z,11.03
2017-09-22T10:07:59.777Z,13.67
2017-09-22T10:10:28.211Z,13.20
2017-09-22T10:12:57.421Z,9.30
2017-09-22T10:15:25.843Z,9.80
2017-09-22T10:17:54.262Z,11.87
2017-09-22T10:20:23.479Z,16.77
2017-09-22T10:22:51.907Z,14.67
2017-09-22T10:25:20.325Z,14.43
2017-09-22T10:27:48.587Z,9.00
2017-09-22T10:30:17.588Z,12.10
2017-09-22T10:32:46.773Z,9.67
2017-09-22T10:35:15.979Z,8.70
2017-09-22T10:37:45.167Z,14.37
2017-09-22T10:40:14.359Z,8.43
2017-09-22T10:42:43.551Z,10.20
2017-09-22T10:45:11.971Z,9.10
2017-09-22T10:47:40.380Z,12.83
2017-09-22T10:50:08.819Z,14.33
2017-09-22T10:52:37.249Z,8.20
2017-09-22T10:55:05.654Z,10.33
2017-09-22T10:57:34.854Z,7.13
2017-09-22T11:00:03.679Z,9.60
2017-09-22T11:02:32.114Z,12.90
2017-09-22T11:05:00.562Z,13.40
2017-09-22T11:07:28.982Z,10.80
2017-09-22T11:09:57.830Z,9.53
2017-09-22T11:12:26.277Z,14.70
2017-09-22T11:14:54.704Z,14.20
2017-09-22T11:17:23.118Z,9.70
2017-09-22T11:19:51.568Z,12.50
2017-09-22T11:22:19.979Z,15.73
2017-09-22T11:24:48.400Z,21.90
2017-09-22T11:27:16.836Z,10.17
2017-09-22T11:29:45.252Z,7.93
2017-09-22T11:32:13.665Z,9.47
2017-09-22T11:34:42.886Z,14.57
2017-09-22T11:37:12.064Z,9.60
2017-09-22T11:39:41.239Z,9.47
2017-09-22T11:42:09.680Z,6.67
2017-09-22T11:44:38.119Z,6.80
2017-09-22T11:47:07.333Z,10.50
2017-09-22T11:49:35.771Z,6.53
2017-09-22T11:52:04.245Z,11.53
2017-09-22T11:54:32.494Z,10.77
2017-09-22T11:57:00.918Z,9.40
2017-09-22T11:59:29.326Z,9.13
2017-09-22T12:01:57.926Z,9.27
2017-09-22T12:04:26.362Z,11.83
2017-09-22T12:06:54.774Z,9.43
2017-09-22T12:09:23.192Z,7.50
2017-09-22T12:11:51.626Z,7.53
2017-09-22T12:14:20.042Z,6.17
2017-09-22T12:16:48.465Z,8.10
2017-09-22T12:19:17.674Z,10.90
2017-09-22T12:21:46.100Z,6.63
2017-09-22T12:24:14.520Z,9.90
2017-09-22T12:26:43.716Z,14.00
2017-09-22T12:29:12.896Z,6.83
2017-09-22T12:31:41.315Z,6.27
2017-09-22T12:34:09.746Z,10.03
2017-09-22T12:36:38.179Z,8.67
2017-09-22T12:39:06.607Z,9.53
2017-09-22T12:41:35.099Z,7.13
2017-09-22T12:44:03.629Z,10.10
2017-09-22T12:46:32.056Z,13.03
2017-09-22T12:49:01.262Z,6.83
2017-09-22T12:51:30.447Z,6.67
2017-09-22T12:53:58.862Z,8.97
2017-09-22T12:56:27.303Z,8.30
2017-09-22T12:58:55.709Z,9.20
2017-09-22T13:01:23.948Z,11.03
2017-09-22T13:03:52.955Z,11.30
2017-09-22T13:06:21.959Z,7.37
2017-09-22T13:08:50.949Z,6.33
2017-09-22T13:11:19.953Z,5.93
2017-09-22T13:13:48.207Z,14.67
2017-09-22T13:16:17.196Z,11.47
2017-09-22T13:18:45.628Z,6.80
2017-09-22T13:21:14.039Z,9.33
2017-09-22T13:23:42.455Z,6.00
2017-09-22T13:26:10.882Z,12.10
2017-09-22T13:28:39.298Z,6.30
2017-09-22T13:31:08.395Z,13.83
2017-09-22T13:33:37.594Z,7.23
2017-09-22T13:36:06.763Z,7.60
2017-09-22T13:38:35.172Z,17.50
2017-09-22T13:41:04.191Z,7.33
2017-09-22T13:43:32.599Z,6.70
2017-09-22T13:46:00.826Z,6.00
2017-09-22T13:48:29.310Z,6.50
2017-09-22T13:50:57.521Z,6.87
2017-09-22T13:53:25.750Z,10.13
2017-09-22T13:55:54.948Z,7.23
2017-09-22T13:58:23.360Z,4.73
2017-09-22T14:00:51.429Z,5.50
2017-09-22T14:03:19.863Z,8.27
2017-09-22T14:05:49.057Z,6.00
2017-09-22T14:08:18.228Z,21.23
2017-09-22T14:10:46.659Z,6.20
2017-09-22T14:13:15.071Z,6.53
2017-09-22T14:15:43.294Z,7.70
2017-09-22T14:18:12.493Z,7.47
2017-09-22T14:20:40.903Z,4.70
2017-09-22T14:23:09.372Z,4.13
2017-09-22T14:25:37.873Z,5.10
2017-09-22T14:28:06.319Z,4.93
2017-09-22T14:30:34.732Z,7.20
2017-09-22T14:33:03.382Z,6.20
2017-09-22T14:35:31.788Z,6.57
2017-09-22T14:38:00.256Z,9.50
2017-09-22T14:40:28.678Z,6.83
2017-09-22T14:42:57.098Z,5.43
2017-09-22T14:45:25.512Z,6.90
2017-09-22T14:47:54.036Z,7.97
2017-09-22T14:50:23.218Z,8.30
2017-09-22T14:52:51.634Z,8.17
2017-09-22T14:55:20.066Z,6.83
2017-09-22T14:57:48.490Z,8.30
2017-09-22T15:00:16.979Z,8.27
2017-09-22T15:02:45.404Z,6.53
2017-09-22T15:05:13.817Z,5.03
2017-09-22T15:07:42.239Z,6.47
2017-09-22T15:10:10.667Z,4.97
2017-09-22T15:12:39.859Z,10.93
2017-09-22T15:15:09.056Z,6.97
2017-09-22T15:17:38.260Z,9.17
2017-09-22T15:20:07.435Z,6.80
2017-09-22T15:22:35.859Z,8.97
2017-09-22T15:25:04.285Z,8.97
2017-09-22T15:27:32.697Z,6.80
2017-09-22T15:30:01.115Z,6.73
2017-09-22T15:32:29.532Z,8.57
2017-09-22T15:34:57.948Z,7.20
2017-09-22T15:37:26.369Z,8.53
2017-09-22T15:39:54.799Z,7.90
2017-09-22T15:42:23.136Z,13.30
2017-09-22T15:44:52.232Z,12.50
2017-09-22T15:47:21.491Z,13.73
2017-09-22T15:49:49.906Z,11.10
2017-09-22T15:52:19.836Z,7.23
2017-09-22T15:54:49.358Z,10.40
2017-09-22T15:57:17.789Z,10.43
2017-09-22T15:59:46.223Z,7.87
2017-09-22T16:02:14.664Z,9.60
2017-09-22T16:04:43.084Z,9.17
2017-09-22T16:07:11.517Z,12.03
2017-09-22T16:09:39.956Z,10.53
2017-09-22T16:12:08.379Z,14.10
2017-09-22T16:14:37.559Z,10.53
2017-09-22T16:17:05.810Z,10.23
2017-09-22T16:19:34.236Z,9.87
2017-09-22T16:22:03.252Z,10.00
2017-09-22T16:24:31.696Z,10.87
2017-09-22T16:27:01.605Z,10.30
2017-09-22T16:29:30.426Z,7.73
2017-09-22T16:31:58.910Z,9.60
2017-09-22T16:34:27.331Z,7.83
2017-09-22T16:36:55.751Z,9.00
2017-09-22T16:39:24.943Z,9.40
2017-09-22T16:41:54.147Z,11.30
2017-09-22T16:44:23.327Z,11.03
2017-09-22T16:46:51.767Z,7.40
2017-09-22T16:49:20.183Z,16.50
2017-09-22T16:51:48.587Z,7.50
2017-09-22T16:54:17.787Z,14.00
2017-09-22T16:56:46.955Z,15.87
2017-09-22T16:59:15.366Z,9.53
2017-09-22T17:01:44.043Z,10.27
2017-09-22T17:04:12.476Z,9.53
2017-09-22T17:06:40.884Z,7.43
2017-09-22T17:09:10.083Z,14.73
2017-09-22T17:11:40.042Z,8.63
2017-09-22T17:14:08.455Z,10.73
2017-09-22T17:16:38.603Z,10.30
2017-09-22T17:19:07.786Z,9.43
2017-09-22T17:21:36.215Z,11.03
2017-09-22T17:24:04.647Z,7.90
2017-09-22T17:26:33.883Z,11.57
2017-09-22T17:29:02.303Z,14.53
2017-09-22T17:31:30.800Z,10.63
2017-09-22T17:33:59.221Z,10.03
2017-09-22T17:36:27.641Z,10.80
2017-09-22T17:38:56.077Z,14.07
2017-09-22T17:41:24.498Z,14.03
2017-09-22T17:43:52.917Z,8.93
2017-09-22T17:46:21.361Z,12.43
2017-09-22T17:48:49.792Z,11.80
2017-09-22T17:51:18.216Z,11.83
2017-09-22T17:53:47.468Z,19.43
2017-09-22T17:56:16.832Z,13.23
2017-09-22T17:58:46.042Z,15.90
2017-09-22T18:01:15.272Z,22.60
2017-09-22T18:03:43.715Z,16.83
2017-09-22T18:06:12.936Z,14.40
2017-09-22T18:08:41.396Z,18.43
2017-09-22T18:11:10.598Z,40.43
2017-09-22T18:13:39.045Z,18.53
2017-09-22T18:16:07.500Z,21.73
2017-09-22T18:18:35.579Z,30.87
2017-09-22T18:21:03.311Z,28.20
2017-09-22T18:23:31.755Z,15.60
2017-09-22T18:26:00.951Z,22.40
2017-09-22T18:28:30.137Z,27.83
2017-09-22T18:30:58.595Z,29.10
2017-09-22T18:33:27.019Z,24.27
2017-09-22T18:35:55.436Z,18.03
2017-09-22T18:38:23.863Z,18.20
2017-09-22T18:40:53.094Z,21.73
2017-09-22T18:43:21.515Z,14.87
2017-09-22T18:45:49.810Z,18.23
2017-09-22T18:48:19.870Z,14.17
2017-09-22T18:50:48.294Z,23.97
2017-09-22T18:53:16.726Z,11.93
2017-09-22T18:55:45.147Z,19.80
2017-09-22T18:58:14.366Z,16.20
2017-09-22T19:00:43.586Z,17.33
2017-09-22T19:03:12.018Z,14.53
2017-09-22T19:05:40.439Z,15.50
2017-09-22T19:08:08.868Z,17.23
2017-09-22T19:10:37.282Z,18.80
2017-09-22T19:13:06.468Z,16.80
2017-09-22T19:15:35.688Z,17.67
2017-09-22T19:18:04.111Z,16.57
2017-09-22T19:20:32.542Z,15.50
2017-09-22T19:23:00.988Z,21.80
2017-09-22T19:25:29.411Z,17.30
2017-09-22T19:27:57.836Z,17.50
2017-09-22T19:30:26.088Z,15.73
2017-09-22T19:32:54.505Z,18.67
2017-09-22T19:35:22.736Z,18.87
2017-09-22T19:37:51.350Z,14.97
2017-09-22T19:40:19.808Z,21.10
2017-09-22T19:42:48.238Z,22.20
2017-09-22T19:45:17.436Z,22.97
2017-09-22T19:47:45.883Z,18.07
2017-09-22T19:50:14.298Z,15.70
2017-09-22T19:52:42.735Z,15.37
2017-09-22T19:55:11.156Z,22.80
2017-09-22T19:57:39.667Z,23.57
2017-09-22T20:00:08.895Z,28.33
2017-09-22T20:02:37.322Z,26.73
2017-09-22T20:05:05.768Z,33.53
2017-09-22T20:07:34.027Z,22.73
2017-09-22T20:10:02.452Z,32.40
2017-09-22T20:12:30.874Z,32.23
2017-09-22T20:14:59.478Z,27.90
2017-09-22T20:17:27.697Z,27.20
2017-09-22T20:19:56.118Z,28.40
2017-09-22T20:22:24.571Z,23.70
2017-09-22T20:24:53.011Z,19.90
2017-09-22T20:27:22.199Z,19.13
2017-09-22T20:29:52.465Z,21.70
2017-09-22T20:32:21.870Z,20.20
2017-09-22T20:34:50.291Z,23.53
2017-09-22T20:37:19.507Z,18.43
2017-09-22T20:39:49.055Z,26.70
2017-09-22T20:42:17.477Z,17.60
2017-09-22T20:44:46.718Z,26.47
2017-09-22T20:47:15.201Z,22.87
2017-09-22T20:49:43.991Z,27.73
2017-09-22T20:52:13.393Z,22.00
2017-09-22T20:54:41.821Z,23.17
2017-09-22T20:57:11.014Z,23.13
2017-09-22T20:59:39.469Z,17.63
2017-09-22T21:02:07.912Z,22.43
2017-09-22T21:04:36.326Z,16.43
2017-09-22T21:07:04.796Z,22.70
2017-09-22T21:09:33.253Z,23.63
2017-09-22T21:12:01.671Z,19.93
2017-09-22T21:14:30.330Z,20.97
2017-09-22T21:16:58.762Z,23.83
2017-09-22T21:19:27.964Z,21.93
2017-09-22T21:21:57.164Z,22.00
2017-09-22T21:24:26.363Z,23.40
2017-09-22T21:26:55.554Z,22.93
2017-09-22T21:29:24.778Z,26.57
2017-09-22T21:31:53.204Z,23.30
2017-09-22T21:34:21.624Z,18.80
2017-09-22T21:36:50.056Z,21.90
2017-09-22T21:39:18.488Z,18.73
2017-09-22T21:41:46.907Z,21.53
2017-09-22T21:44:15.353Z,25.07
2017-09-22T21:46:43.791Z,20.07
2017-09-22T21:49:12.993Z,15.73
2017-09-22T21:51:42.228Z,16.90
2017-09-22T21:54:10.648Z,17.43
2017-09-22T21:56:39.091Z,21.27
2017-09-22T21:59:07.523Z,20.20
2017-09-22T22:01:36.701Z,18.67
2017-09-22T22:04:10.746Z,15.30
2017-09-22T22:06:45.539Z,17.50
2017-09-22T22:09:13.839Z,19.50
2017-09-22T22:11:42.092Z,20.30
2017-09-22T22:14:10.333Z,17.60
2017-09-22T22:16:38.779Z,15.97
2017-09-22T22:19:07.194Z,15.50
2017-09-22T22:21:35.614Z,15.90
2017-09-22T22:24:04.058Z,18.87
2017-09-22T22:26:32.470Z,17.27
2017-09-22T22:29:00.888Z,16.77
2017-09-22T22:31:29.334Z,20.40
2017-09-22T22:33:58.609Z,15.53
2017-09-22T22:36:26.701Z,15.27
2017-09-22T22:38:55.907Z,17.87
2017-09-22T22:41:25.096Z,19.30
2017-09-22T22:43:54.269Z,17.40
2017-09-22T22:46:22.698Z,17.43
2017-09-22T22:48:51.136Z,16.50
2017-09-22T22:51:19.549Z,19.10
2017-09-22T22:53:48.019Z,18.83
2017-09-22T22:56:17.207Z,15.40
2017-09-22T22:58:46.395Z,16.03
2017-09-22T23:01:14.823Z,20.33
2017-09-22T23:03:43.239Z,14.97
2017-09-22T23:06:11.473Z,16.03
2017-09-22T23:08:40.049Z,14.13
2017-09-22T23:11:08.475Z,19.40
2017-09-22T23:13:36.898Z,15.47
2017-09-22T23:16:05.347Z,18.23
2017-09-22T23:18:35.275Z,19.10
2017-09-22T23:21:04.483Z,17.67
2017-09-22T23:23:32.937Z,18.30
2017-09-22T23:26:01.350Z,17.07
2017-09-22T23:28:29.758Z,19.13
2017-09-22T23:30:58.444Z,20.97
2017-09-22T23:33:27.082Z,20.40
2017-09-22T23:35:56.267Z,21.93
2017-09-22T23:38:25.747Z,19.93
2017-09-22T23:40:54.181Z,23.73
2017-09-22T23:43:22.593Z,22.33
2017-09-22T23:45:51.025Z,18.03
2017-09-22T23:48:19.467Z,24.53
2017-09-22T23:50:47.875Z,19.87
2017-09-22T23:53:17.075Z,14.97
2017-09-22T23:55:45.482Z,17.97
2017-09-22T23:58:13.894Z,15.33
